sensor_id;sensor_type;location;lat;lon;timestamp;P1;durP1;ratioP1;P2;durP2;ratioP2
22363;SDS011;11349;53.412;-1.328;2023-02-12T00:00:43;5.70;;;2.17;;
22363;SDS011;11349;53.412;-1.328;2023-02-12T00:03:09;7.18;;;2.30;;
22363;SDS011;11349;53.412;-1.328;2023-02-12T00:05:38;6.13;;;1.98;;
22363;SDS011;11349;53.412;-1.328;2023-02-12T00:08:06;7.68;;;2.08;;
22363;SDS011;11349;53.412;-1.328;2023-02-12T00:10:32;6.65;;;2.20;;
22363;SDS011;11349;53.412;-1.328;2023-02-12T00:12:58;5.13;;;2.03;;
22363;SDS011;11349;53.412;-1.328;2023-02-12T00:15:24;7.05;;;1.92;;
22363;SDS011;11349;53.412;-1.328;2023-02-12T00:17:49;7.63;;;2.35;;
22363;SDS011;11349;53.412;-1.328;2023-02-12T00:20:15;8.20;;;2.55;;
22363;SDS011;11349;53.412;-1.328;2023-02-12T00:22:41;7.60;;;2.30;;
22363;SDS011;11349;53.412;-1.328;2023-02-12T00:25:07;9.52;;;2.42;;
22363;SDS011;11349;53.412;-1.328;2023-02-12T00:27:34;8.90;;;2.25;;
22363;SDS011;11349;53.412;-1.328;2023-02-12T00:30:00;8.70;;;2.28;;
22363;SDS011;11349;53.412;-1.328;2023-02-12T00:32:26;5.57;;;2.90;;
22363;SDS011;11349;53.412;-1.328;2023-02-12T00:34:52;6.70;;;2.45;;
22363;SDS011;11349;53.412;-1.328;2023-02-12T00:37:18;5.25;;;1.95;;
22363;SDS011;11349;53.412;-1.328;2023-02-12T00:39:44;9.10;;;2.40;;
22363;SDS011;11349;53.412;-1.328;2023-02-12T00:42:09;9.77;;;2.55;;
22363;SDS011;11349;53.412;-1.328;2023-02-12T00:44:35;10.50;;;3.00;;
22363;SDS011;11349;53.412;-1.328;2023-02-12T00:47:01;5.07;;;2.53;;
22363;SDS011;11349;53.412;-1.328;2023-02-12T00:49:29;8.75;;;2.42;;
22363;SDS011;11349;53.412;-1.328;2023-02-12T00:51:58;8.40;;;2.42;;
22363;SDS011;11349;53.412;-1.328;2023-02-12T00:54:25;6.80;;;2.30;;
22363;SDS011;11349;53.412;-1.328;2023-02-12T00:56:51;10.85;;;2.50;;
22363;SDS011;11349;53.412;-1.328;2023-02-12T00:59:17;7.97;;;2.05;;
22363;SDS011;11349;53.412;-1.328;2023-02-12T01:01:42;5.05;;;1.85;;
22363;SDS011;11349;53.412;-1.328;2023-02-12T01:04:08;6.25;;;2.80;;
22363;SDS011;11349;53.412;-1.328;2023-02-12T01:06:34;6.63;;;2.00;;
22363;SDS011;11349;53.412;-1.328;2023-02-12T01:08:59;5.45;;;2.20;;
22363;SDS011;11349;53.412;-1.328;2023-02-12T01:11:26;8.13;;;2.03;;
22363;SDS011;11349;53.412;-1.328;2023-02-12T01:13:51;4.78;;;1.60;;
22363;SDS011;11349;53.412;-1.328;2023-02-12T01:16:18;6.57;;;1.75;;
22363;SDS011;11349;53.412;-1.328;2023-02-12T01:18:46;5.13;;;1.60;;
22363;SDS011;11349;53.412;-1.328;2023-02-12T01:21:17;6.22;;;1.65;;
22363;SDS011;11349;53.412;-1.328;2023-02-12T01:23:47;3.88;;;1.42;;
22363;SDS011;11349;53.412;-1.328;2023-02-12T01:26:14;5.70;;;1.80;;
22363;SDS011;11349;53.412;-1.328;2023-02-12T01:28:41;11.32;;;2.05;;
22363;SDS011;11349;53.412;-1.328;2023-02-12T01:31:11;6.45;;;1.63;;
22363;SDS011;11349;53.412;-1.328;2023-02-12T01:33:39;8.10;;;1.75;;
22363;SDS011;11349;53.412;-1.328;2023-02-12T01:36:05;9.50;;;1.92;;
22363;SDS011;11349;53.412;-1.328;2023-02-12T01:38:32;7.55;;;1.92;;
22363;SDS011;11349;53.412;-1.328;2023-02-12T01:41:08;6.65;;;1.75;;
22363;SDS011;11349;53.412;-1.328;2023-02-12T01:43:39;6.15;;;1.63;;
22363;SDS011;11349;53.412;-1.328;2023-02-12T01:46:06;7.25;;;1.80;;
22363;SDS011;11349;53.412;-1.328;2023-02-12T01:48:37;7.95;;;1.95;;
22363;SDS011;11349;53.412;-1.328;2023-02-12T01:51:10;8.75;;;1.90;;
22363;SDS011;11349;53.412;-1.328;2023-02-12T01:53:42;5.97;;;1.70;;
22363;SDS011;11349;53.412;-1.328;2023-02-12T01:56:13;4.88;;;1.55;;
22363;SDS011;11349;53.412;-1.328;2023-02-12T01:58:40;9.82;;;2.67;;
22363;SDS011;11349;53.412;-1.328;2023-02-12T02:01:09;9.82;;;2.00;;
22363;SDS011;11349;53.412;-1.328;2023-02-12T02:03:47;9.48;;;2.30;;
22363;SDS011;11349;53.412;-1.328;2023-02-12T02:06:17;4.88;;;2.42;;
22363;SDS011;11349;53.412;-1.328;2023-02-12T02:08:46;5.03;;;1.73;;
22363;SDS011;11349;53.412;-1.328;2023-02-12T02:11:13;7.97;;;1.80;;
22363;SDS011;11349;53.412;-1.328;2023-02-12T02:13:57;4.53;;;1.70;;
22363;SDS011;11349;53.412;-1.328;2023-02-12T02:16:42;7.47;;;1.65;;
22363;SDS011;11349;53.412;-1.328;2023-02-12T02:19:55;5.65;;;2.15;;
22363;SDS011;11349;53.412;-1.328;2023-02-12T02:22:36;8.00;;;1.85;;
22363;SDS011;11349;53.412;-1.328;2023-02-12T02:28:16;6.05;;;1.60;;
22363;SDS011;11349;53.412;-1.328;2023-02-12T02:33:58;6.15;;;1.98;;
22363;SDS011;11349;53.412;-1.328;2023-02-12T02:39:25;5.63;;;2.20;;
22363;SDS011;11349;53.412;-1.328;2023-02-12T02:41:56;9.45;;;2.22;;
22363;SDS011;11349;53.412;-1.328;2023-02-12T02:44:37;6.05;;;2.30;;
22363;SDS011;11349;53.412;-1.328;2023-02-12T02:47:07;9.82;;;2.47;;
22363;SDS011;11349;53.412;-1.328;2023-02-12T02:49:51;9.38;;;2.70;;
22363;SDS011;11349;53.412;-1.328;2023-02-12T02:52:34;8.93;;;2.60;;
22363;SDS011;11349;53.412;-1.328;2023-02-12T02:55:11;12.82;;;3.60;;
22363;SDS011;11349;53.412;-1.328;2023-02-12T02:57:41;10.00;;;2.63;;
22363;SDS011;11349;53.412;-1.328;2023-02-12T03:00:36;7.75;;;3.15;;
22363;SDS011;11349;53.412;-1.328;2023-02-12T03:03:10;8.07;;;2.38;;
22363;SDS011;11349;53.412;-1.328;2023-02-12T03:05:46;12.02;;;3.05;;
22363;SDS011;11349;53.412;-1.328;2023-02-12T03:08:15;8.63;;;3.40;;
22363;SDS011;11349;53.412;-1.328;2023-02-12T03:10:48;9.93;;;2.78;;
22363;SDS011;11349;53.412;-1.328;2023-02-12T03:13:41;8.77;;;2.95;;
22363;SDS011;11349;53.412;-1.328;2023-02-12T03:16:16;13.13;;;4.07;;
22363;SDS011;11349;53.412;-1.328;2023-02-12T03:21:27;6.50;;;3.20;;
22363;SDS011;11349;53.412;-1.328;2023-02-12T03:24:25;9.80;;;2.90;;
22363;SDS011;11349;53.412;-1.328;2023-02-12T03:27:12;9.52;;;3.42;;
22363;SDS011;11349;53.412;-1.328;2023-02-12T03:29:52;7.07;;;3.33;;
22363;SDS011;11349;53.412;-1.328;2023-02-12T03:38:16;8.82;;;3.33;;
22363;SDS011;11349;53.412;-1.328;2023-02-12T03:43:30;9.93;;;2.90;;
22363;SDS011;11349;53.412;-1.328;2023-02-12T03:47:16;9.20;;;2.88;;
22363;SDS011;11349;53.412;-1.328;2023-02-12T03:49:34;10.02;;;3.30;;
22363;SDS011;11349;53.412;-1.328;2023-02-12T03:52:19;10.18;;;3.80;;
22363;SDS011;11349;53.412;-1.328;2023-02-12T03:54:45;8.30;;;3.05;;
22363;SDS011;11349;53.412;-1.328;2023-02-12T03:57:16;8.43;;;3.20;;
22363;SDS011;11349;53.412;-1.328;2023-02-12T03:59:45;8.05;;;3.10;;
22363;SDS011;11349;53.412;-1.328;2023-02-12T04:02:12;10.55;;;3.58;;
22363;SDS011;11349;53.412;-1.328;2023-02-12T04:04:40;10.00;;;3.10;;
22363;SDS011;11349;53.412;-1.328;2023-02-12T04:07:07;11.15;;;4.00;;
22363;SDS011;11349;53.412;-1.328;2023-02-12T04:09:34;8.63;;;3.42;;
22363;SDS011;11349;53.412;-1.328;2023-02-12T04:18:42;8.43;;;3.65;;
22363;SDS011;11349;53.412;-1.328;2023-02-12T04:26:23;5.78;;;2.47;;
22363;SDS011;11349;53.412;-1.328;2023-02-12T04:31:48;8.80;;;2.58;;
22363;SDS011;11349;53.412;-1.328;2023-02-12T04:37:03;4.97;;;3.08;;
22363;SDS011;11349;53.412;-1.328;2023-02-12T04:39:35;10.20;;;4.70;;
22363;SDS011;11349;53.412;-1.328;2023-02-12T04:42:03;9.70;;;4.15;;
22363;SDS011;11349;53.412;-1.328;2023-02-12T04:44:31;8.85;;;3.78;;
22363;SDS011;11349;53.412;-1.328;2023-02-12T04:46:59;9.70;;;4.00;;
22363;SDS011;11349;53.412;-1.328;2023-02-12T04:49:25;10.13;;;4.32;;
22363;SDS011;11349;53.412;-1.328;2023-02-12T04:51:51;11.18;;;3.95;;
22363;SDS011;11349;53.412;-1.328;2023-02-12T04:54:17;12.23;;;4.03;;
22363;SDS011;11349;53.412;-1.328;2023-02-12T04:56:45;10.63;;;5.57;;
22363;SDS011;11349;53.412;-1.328;2023-02-12T04:59:11;8.90;;;4.03;;
22363;SDS011;11349;53.412;-1.328;2023-02-12T05:01:37;11.13;;;4.03;;
22363;SDS011;11349;53.412;-1.328;2023-02-12T05:04:04;8.05;;;3.72;;
22363;SDS011;11349;53.412;-1.328;2023-02-12T05:06:30;12.55;;;3.45;;
22363;SDS011;11349;53.412;-1.328;2023-02-12T05:08:59;8.45;;;3.67;;
22363;SDS011;11349;53.412;-1.328;2023-02-12T05:11:24;11.95;;;4.47;;
22363;SDS011;11349;53.412;-1.328;2023-02-12T05:13:50;10.88;;;3.90;;
22363;SDS011;11349;53.412;-1.328;2023-02-12T05:16:17;10.43;;;4.05;;
22363;SDS011;11349;53.412;-1.328;2023-02-12T05:18:43;14.40;;;4.30;;
22363;SDS011;11349;53.412;-1.328;2023-02-12T05:21:09;9.00;;;5.03;;
22363;SDS011;11349;53.412;-1.328;2023-02-12T05:23:36;10.32;;;4.07;;
22363;SDS011;11349;53.412;-1.328;2023-02-12T05:26:04;12.18;;;4.20;;
22363;SDS011;11349;53.412;-1.328;2023-02-12T05:28:31;12.20;;;4.30;;
22363;SDS011;11349;53.412;-1.328;2023-02-12T05:31:01;7.20;;;4.03;;
22363;SDS011;11349;53.412;-1.328;2023-02-12T05:33:28;9.98;;;4.15;;
22363;SDS011;11349;53.412;-1.328;2023-02-12T05:35:54;6.43;;;3.92;;
22363;SDS011;11349;53.412;-1.328;2023-02-12T05:38:20;9.43;;;3.80;;
22363;SDS011;11349;53.412;-1.328;2023-02-12T05:40:46;8.90;;;4.30;;
22363;SDS011;11349;53.412;-1.328;2023-02-12T05:43:12;10.95;;;4.05;;
22363;SDS011;11349;53.412;-1.328;2023-02-12T05:45:38;8.68;;;3.85;;
22363;SDS011;11349;53.412;-1.328;2023-02-12T05:48:05;7.38;;;3.47;;
22363;SDS011;11349;53.412;-1.328;2023-02-12T05:50:31;6.53;;;3.65;;
22363;SDS011;11349;53.412;-1.328;2023-02-12T05:52:58;7.85;;;3.90;;
22363;SDS011;11349;53.412;-1.328;2023-02-12T05:55:25;9.40;;;4.47;;
22363;SDS011;11349;53.412;-1.328;2023-02-12T05:57:51;8.75;;;4.50;;
22363;SDS011;11349;53.412;-1.328;2023-02-12T06:00:16;12.07;;;4.00;;
22363;SDS011;11349;53.412;-1.328;2023-02-12T06:02:42;10.27;;;4.18;;
22363;SDS011;11349;53.412;-1.328;2023-02-12T06:05:08;6.22;;;3.33;;
22363;SDS011;11349;53.412;-1.328;2023-02-12T06:07:34;10.70;;;4.57;;
22363;SDS011;11349;53.412;-1.328;2023-02-12T06:10:00;12.75;;;4.80;;
22363;SDS011;11349;53.412;-1.328;2023-02-12T06:12:25;8.95;;;3.88;;
22363;SDS011;11349;53.412;-1.328;2023-02-12T06:14:51;12.38;;;4.95;;
22363;SDS011;11349;53.412;-1.328;2023-02-12T06:17:17;11.95;;;4.88;;
22363;SDS011;11349;53.412;-1.328;2023-02-12T06:19:42;9.55;;;4.70;;
22363;SDS011;11349;53.412;-1.328;2023-02-12T06:22:08;10.65;;;4.68;;
22363;SDS011;11349;53.412;-1.328;2023-02-12T06:24:34;9.73;;;4.70;;
22363;SDS011;11349;53.412;-1.328;2023-02-12T06:27:01;9.05;;;4.43;;
22363;SDS011;11349;53.412;-1.328;2023-02-12T06:29:26;9.98;;;4.80;;
22363;SDS011;11349;53.412;-1.328;2023-02-12T06:31:52;10.93;;;5.35;;
22363;SDS011;11349;53.412;-1.328;2023-02-12T06:34:18;12.27;;;5.35;;
22363;SDS011;11349;53.412;-1.328;2023-02-12T06:36:44;10.25;;;6.45;;
22363;SDS011;11349;53.412;-1.328;2023-02-12T06:39:11;10.13;;;5.63;;
22363;SDS011;11349;53.412;-1.328;2023-02-12T06:41:38;11.02;;;5.95;;
22363;SDS011;11349;53.412;-1.328;2023-02-12T06:44:05;11.93;;;6.18;;
22363;SDS011;11349;53.412;-1.328;2023-02-12T06:46:31;13.60;;;5.78;;
22363;SDS011;11349;53.412;-1.328;2023-02-12T06:48:57;10.73;;;5.80;;
22363;SDS011;11349;53.412;-1.328;2023-02-12T06:51:25;12.25;;;5.97;;
22363;SDS011;11349;53.412;-1.328;2023-02-12T06:53:52;12.07;;;6.10;;
22363;SDS011;11349;53.412;-1.328;2023-02-12T06:56:20;13.70;;;6.47;;
22363;SDS011;11349;53.412;-1.328;2023-02-12T06:58:50;13.43;;;5.95;;
22363;SDS011;11349;53.412;-1.328;2023-02-12T07:01:18;9.93;;;5.80;;
22363;SDS011;11349;53.412;-1.328;2023-02-12T07:03:50;10.65;;;5.78;;
22363;SDS011;11349;53.412;-1.328;2023-02-12T07:06:17;11.02;;;5.85;;
22363;SDS011;11349;53.412;-1.328;2023-02-12T07:08:44;11.40;;;5.43;;
22363;SDS011;11349;53.412;-1.328;2023-02-12T07:11:10;14.30;;;6.57;;
22363;SDS011;11349;53.412;-1.328;2023-02-12T07:13:35;9.50;;;6.13;;
22363;SDS011;11349;53.412;-1.328;2023-02-12T07:16:02;12.25;;;6.32;;
22363;SDS011;11349;53.412;-1.328;2023-02-12T07:18:38;15.65;;;6.28;;
22363;SDS011;11349;53.412;-1.328;2023-02-12T07:21:05;11.20;;;6.40;;
22363;SDS011;11349;53.412;-1.328;2023-02-12T07:23:32;15.63;;;7.80;;
22363;SDS011;11349;53.412;-1.328;2023-02-12T07:26:03;13.63;;;6.95;;
22363;SDS011;11349;53.412;-1.328;2023-02-12T07:28:30;13.55;;;6.57;;
22363;SDS011;11349;53.412;-1.328;2023-02-12T07:31:09;11.75;;;6.70;;
22363;SDS011;11349;53.412;-1.328;2023-02-12T07:33:43;12.82;;;7.55;;
22363;SDS011;11349;53.412;-1.328;2023-02-12T07:36:10;12.93;;;7.35;;
22363;SDS011;11349;53.412;-1.328;2023-02-12T07:38:38;15.82;;;7.95;;
22363;SDS011;11349;53.412;-1.328;2023-02-12T07:41:11;16.25;;;8.00;;
22363;SDS011;11349;53.412;-1.328;2023-02-12T07:44:04;16.88;;;8.65;;
22363;SDS011;11349;53.412;-1.328;2023-02-12T07:46:37;13.25;;;8.35;;
22363;SDS011;11349;53.412;-1.328;2023-02-12T07:49:05;17.73;;;8.48;;
22363;SDS011;11349;53.412;-1.328;2023-02-12T07:51:35;17.23;;;9.27;;
22363;SDS011;11349;53.412;-1.328;2023-02-12T07:54:02;12.68;;;7.97;;
22363;SDS011;11349;53.412;-1.328;2023-02-12T07:56:29;13.15;;;8.13;;
22363;SDS011;11349;53.412;-1.328;2023-02-12T07:59:01;17.00;;;8.82;;
22363;SDS011;11349;53.412;-1.328;2023-02-12T08:01:30;15.10;;;9.50;;
22363;SDS011;11349;53.412;-1.328;2023-02-12T08:03:58;17.27;;;8.73;;
22363;SDS011;11349;53.412;-1.328;2023-02-12T08:06:27;14.90;;;9.32;;
22363;SDS011;11349;53.412;-1.328;2023-02-12T08:08:55;18.52;;;9.77;;
22363;SDS011;11349;53.412;-1.328;2023-02-12T08:11:23;14.30;;;9.30;;
22363;SDS011;11349;53.412;-1.328;2023-02-12T08:13:50;16.13;;;10.32;;
22363;SDS011;11349;53.412;-1.328;2023-02-12T08:16:20;21.08;;;10.98;;
22363;SDS011;11349;53.412;-1.328;2023-02-12T08:18:48;19.90;;;11.13;;
22363;SDS011;11349;53.412;-1.328;2023-02-12T08:21:15;21.00;;;12.07;;
22363;SDS011;11349;53.412;-1.328;2023-02-12T08:23:43;21.58;;;12.57;;
22363;SDS011;11349;53.412;-1.328;2023-02-12T08:29:01;17.33;;;9.25;;
22363;SDS011;11349;53.412;-1.328;2023-02-12T08:31:33;16.58;;;10.63;;
22363;SDS011;11349;53.412;-1.328;2023-02-12T08:34:00;15.65;;;10.23;;
22363;SDS011;11349;53.412;-1.328;2023-02-12T08:36:28;16.92;;;10.95;;
22363;SDS011;11349;53.412;-1.328;2023-02-12T08:38:58;18.23;;;9.80;;
22363;SDS011;11349;53.412;-1.328;2023-02-12T08:41:25;18.65;;;10.50;;
22363;SDS011;11349;53.412;-1.328;2023-02-12T08:43:53;15.82;;;10.85;;
22363;SDS011;11349;53.412;-1.328;2023-02-12T08:46:23;20.40;;;12.32;;
22363;SDS011;11349;53.412;-1.328;2023-02-12T08:48:54;16.20;;;10.18;;
22363;SDS011;11349;53.412;-1.328;2023-02-12T08:51:28;22.65;;;11.20;;
22363;SDS011;11349;53.412;-1.328;2023-02-12T08:53:57;24.45;;;13.55;;
22363;SDS011;11349;53.412;-1.328;2023-02-12T08:56:24;34.78;;;19.60;;
22363;SDS011;11349;53.412;-1.328;2023-02-12T08:58:51;25.90;;;15.68;;
22363;SDS011;11349;53.412;-1.328;2023-02-12T09:01:20;30.48;;;15.75;;
22363;SDS011;11349;53.412;-1.328;2023-02-12T09:03:48;23.67;;;12.40;;
22363;SDS011;11349;53.412;-1.328;2023-02-12T09:06:16;20.08;;;12.35;;
22363;SDS011;11349;53.412;-1.328;2023-02-12T09:08:43;19.77;;;11.95;;
22363;SDS011;11349;53.412;-1.328;2023-02-12T09:11:10;18.60;;;12.02;;
22363;SDS011;11349;53.412;-1.328;2023-02-12T09:13:38;19.75;;;12.35;;
22363;SDS011;11349;53.412;-1.328;2023-02-12T09:16:05;21.23;;;12.70;;
22363;SDS011;11349;53.412;-1.328;2023-02-12T09:18:32;19.13;;;10.80;;
22363;SDS011;11349;53.412;-1.328;2023-02-12T09:21:16;22.10;;;11.00;;
22363;SDS011;11349;53.412;-1.328;2023-02-12T09:23:43;16.98;;;10.35;;
22363;SDS011;11349;53.412;-1.328;2023-02-12T09:26:10;20.00;;;10.45;;
22363;SDS011;11349;53.412;-1.328;2023-02-12T09:28:39;19.75;;;11.93;;
22363;SDS011;11349;53.412;-1.328;2023-02-12T09:31:06;18.25;;;11.05;;
22363;SDS011;11349;53.412;-1.328;2023-02-12T09:33:36;19.17;;;11.43;;
22363;SDS011;11349;53.412;-1.328;2023-02-12T09:36:03;17.67;;;11.13;;
22363;SDS011;11349;53.412;-1.328;2023-02-12T09:38:29;24.02;;;12.25;;
22363;SDS011;11349;53.412;-1.328;2023-02-12T09:43:54;23.77;;;11.93;;
22363;SDS011;11349;53.412;-1.328;2023-02-12T09:46:31;19.67;;;11.15;;
22363;SDS011;11349;53.412;-1.328;2023-02-12T09:51:33;20.70;;;10.77;;
22363;SDS011;11349;53.412;-1.328;2023-02-12T09:54:04;18.92;;;11.63;;
22363;SDS011;11349;53.412;-1.328;2023-02-12T09:56:34;19.60;;;11.02;;
22363;SDS011;11349;53.412;-1.328;2023-02-12T09:59:06;21.08;;;11.88;;
22363;SDS011;11349;53.412;-1.328;2023-02-12T10:01:33;20.45;;;12.10;;
22363;SDS011;11349;53.412;-1.328;2023-02-12T10:03:59;19.70;;;11.85;;
22363;SDS011;11349;53.412;-1.328;2023-02-12T10:06:35;20.02;;;13.07;;
22363;SDS011;11349;53.412;-1.328;2023-02-12T10:12:19;17.75;;;11.23;;
22363;SDS011;11349;53.412;-1.328;2023-02-12T10:20:39;17.80;;;11.88;;
22363;SDS011;11349;53.412;-1.328;2023-02-12T10:28:41;21.20;;;11.55;;
22363;SDS011;11349;53.412;-1.328;2023-02-12T10:31:11;18.77;;;12.32;;
22363;SDS011;11349;53.412;-1.328;2023-02-12T10:33:54;20.20;;;11.70;;
22363;SDS011;11349;53.412;-1.328;2023-02-12T10:41:35;18.10;;;11.35;;
22363;SDS011;11349;53.412;-1.328;2023-02-12T10:44:05;22.67;;;12.90;;
22363;SDS011;11349;53.412;-1.328;2023-02-12T10:46:31;21.02;;;11.55;;
22363;SDS011;11349;53.412;-1.328;2023-02-12T10:48:56;16.77;;;11.73;;
22363;SDS011;11349;53.412;-1.328;2023-02-12T10:54:30;18.02;;;12.13;;
22363;SDS011;11349;53.412;-1.328;2023-02-12T10:56:59;14.88;;;11.82;;
22363;SDS011;11349;53.412;-1.328;2023-02-12T10:59:45;16.83;;;11.13;;
22363;SDS011;11349;53.412;-1.328;2023-02-12T11:02:29;19.75;;;12.10;;
22363;SDS011;11349;53.412;-1.328;2023-02-12T11:04:57;18.98;;;13.40;;
22363;SDS011;11349;53.412;-1.328;2023-02-12T11:07:24;22.65;;;12.70;;
22363;SDS011;11349;53.412;-1.328;2023-02-12T11:09:53;17.95;;;11.40;;
22363;SDS011;11349;53.412;-1.328;2023-02-12T11:12:25;16.48;;;12.00;;
22363;SDS011;11349;53.412;-1.328;2023-02-12T11:15:00;17.98;;;11.50;;
22363;SDS011;11349;53.412;-1.328;2023-02-12T11:17:42;16.65;;;11.73;;
22363;SDS011;11349;53.412;-1.328;2023-02-12T11:25:25;13.68;;;10.40;;
22363;SDS011;11349;53.412;-1.328;2023-02-12T11:28:03;14.27;;;10.82;;
22363;SDS011;11349;53.412;-1.328;2023-02-12T11:30:47;16.67;;;12.02;;
22363;SDS011;11349;53.412;-1.328;2023-02-12T11:33:25;16.08;;;11.00;;
22363;SDS011;11349;53.412;-1.328;2023-02-12T11:35:57;15.02;;;11.90;;
22363;SDS011;11349;53.412;-1.328;2023-02-12T11:41:20;14.68;;;11.10;;
22363;SDS011;11349;53.412;-1.328;2023-02-12T11:43:47;13.98;;;10.30;;
22363;SDS011;11349;53.412;-1.328;2023-02-12T11:46:20;14.52;;;10.48;;
22363;SDS011;11349;53.412;-1.328;2023-02-12T11:48:49;13.02;;;10.25;;
22363;SDS011;11349;53.412;-1.328;2023-02-12T11:51:26;13.57;;;10.07;;
22363;SDS011;11349;53.412;-1.328;2023-02-12T11:53:54;15.52;;;11.88;;
22363;SDS011;11349;53.412;-1.328;2023-02-12T11:56:23;13.25;;;10.25;;
22363;SDS011;11349;53.412;-1.328;2023-02-12T11:59:49;12.10;;;9.50;;
22363;SDS011;11349;53.412;-1.328;2023-02-12T12:02:12;13.15;;;10.30;;
22363;SDS011;11349;53.412;-1.328;2023-02-12T12:04:50;13.07;;;9.18;;
22363;SDS011;11349;53.412;-1.328;2023-02-12T12:07:22;11.43;;;8.38;;
22363;SDS011;11349;53.412;-1.328;2023-02-12T12:12:31;10.65;;;9.55;;
22363;SDS011;11349;53.412;-1.328;2023-02-12T12:15:09;11.35;;;9.43;;
22363;SDS011;11349;53.412;-1.328;2023-02-12T12:18:05;11.35;;;8.30;;
22363;SDS011;11349;53.412;-1.328;2023-02-12T12:23:59;14.13;;;8.55;;
22363;SDS011;11349;53.412;-1.328;2023-02-12T12:26:33;11.77;;;9.57;;
22363;SDS011;11349;53.412;-1.328;2023-02-12T12:29:03;12.07;;;8.25;;
22363;SDS011;11349;53.412;-1.328;2023-02-12T12:31:38;12.38;;;8.07;;
22363;SDS011;11349;53.412;-1.328;2023-02-12T12:34:08;9.05;;;8.02;;
22363;SDS011;11349;53.412;-1.328;2023-02-12T12:45:18;10.40;;;8.13;;
22363;SDS011;11349;53.412;-1.328;2023-02-12T12:48:22;11.13;;;9.48;;
22363;SDS011;11349;53.412;-1.328;2023-02-12T13:09:57;16.02;;;12.43;;
22363;SDS011;11349;53.412;-1.328;2023-02-12T13:20:33;16.08;;;14.02;;
22363;SDS011;11349;53.412;-1.328;2023-02-12T13:28:41;20.83;;;17.00;;
22363;SDS011;11349;53.412;-1.328;2023-02-12T13:31:16;18.92;;;16.65;;
22363;SDS011;11349;53.412;-1.328;2023-02-12T13:33:55;20.48;;;16.92;;
22363;SDS011;11349;53.412;-1.328;2023-02-12T13:36:24;22.70;;;16.77;;
22363;SDS011;11349;53.412;-1.328;2023-02-12T13:41:21;18.10;;;15.05;;
22363;SDS011;11349;53.412;-1.328;2023-02-12T13:49:28;17.05;;;15.27;;
22363;SDS011;11349;53.412;-1.328;2023-02-12T13:52:06;20.77;;;15.13;;
22363;SDS011;11349;53.412;-1.328;2023-02-12T13:57:21;19.90;;;16.35;;
22363;SDS011;11349;53.412;-1.328;2023-02-12T13:59:48;22.08;;;17.63;;
22363;SDS011;11349;53.412;-1.328;2023-02-12T14:07:18;23.95;;;16.42;;
22363;SDS011;11349;53.412;-1.328;2023-02-12T14:14:49;16.23;;;14.52;;
22363;SDS011;11349;53.412;-1.328;2023-02-12T14:24:54;20.05;;;17.23;;
22363;SDS011;11349;53.412;-1.328;2023-02-12T14:27:21;21.67;;;18.67;;
22363;SDS011;11349;53.412;-1.328;2023-02-12T14:37:50;17.48;;;15.07;;
22363;SDS011;11349;53.412;-1.328;2023-02-12T14:42:59;17.45;;;14.13;;
22363;SDS011;11349;53.412;-1.328;2023-02-12T14:45:35;18.88;;;14.43;;
22363;SDS011;11349;53.412;-1.328;2023-02-12T14:48:02;20.77;;;15.25;;
22363;SDS011;11349;53.412;-1.328;2023-02-12T14:50:30;17.35;;;14.63;;
22363;SDS011;11349;53.412;-1.328;2023-02-12T14:53:04;17.73;;;14.00;;
22363;SDS011;11349;53.412;-1.328;2023-02-12T14:55:44;21.20;;;15.23;;
22363;SDS011;11349;53.412;-1.328;2023-02-12T14:58:16;21.45;;;15.43;;
22363;SDS011;11349;53.412;-1.328;2023-02-12T15:00:48;21.33;;;15.38;;
22363;SDS011;11349;53.412;-1.328;2023-02-12T15:06:03;18.85;;;14.15;;
22363;SDS011;11349;53.412;-1.328;2023-02-12T15:11:22;18.70;;;14.70;;
22363;SDS011;11349;53.412;-1.328;2023-02-12T15:14:27;21.38;;;15.35;;
22363;SDS011;11349;53.412;-1.328;2023-02-12T15:22:30;17.65;;;14.52;;
22363;SDS011;11349;53.412;-1.328;2023-02-12T15:27:56;19.35;;;15.00;;
22363;SDS011;11349;53.412;-1.328;2023-02-12T15:30:33;18.38;;;14.73;;
22363;SDS011;11349;53.412;-1.328;2023-02-12T15:33:04;19.58;;;14.77;;
22363;SDS011;11349;53.412;-1.328;2023-02-12T15:35:32;19.05;;;14.45;;
22363;SDS011;11349;53.412;-1.328;2023-02-12T15:38:00;18.08;;;14.93;;
22363;SDS011;11349;53.412;-1.328;2023-02-12T15:40:27;18.02;;;15.23;;
22363;SDS011;11349;53.412;-1.328;2023-02-12T15:45:23;16.73;;;12.30;;
22363;SDS011;11349;53.412;-1.328;2023-02-12T15:48:01;18.27;;;15.10;;
22363;SDS011;11349;53.412;-1.328;2023-02-12T15:50:52;17.10;;;11.88;;
22363;SDS011;11349;53.412;-1.328;2023-02-12T15:53:22;17.63;;;13.10;;
22363;SDS011;11349;53.412;-1.328;2023-02-12T15:55:50;17.15;;;14.38;;
22363;SDS011;11349;53.412;-1.328;2023-02-12T15:58:24;15.55;;;13.82;;
22363;SDS011;11349;53.412;-1.328;2023-02-12T16:00:59;14.95;;;13.35;;
22363;SDS011;11349;53.412;-1.328;2023-02-12T16:03:27;18.42;;;13.93;;
22363;SDS011;11349;53.412;-1.328;2023-02-12T16:05:56;16.13;;;13.82;;
22363;SDS011;11349;53.412;-1.328;2023-02-12T16:08:28;19.08;;;14.98;;
22363;SDS011;11349;53.412;-1.328;2023-02-12T16:10:57;21.10;;;15.63;;
22363;SDS011;11349;53.412;-1.328;2023-02-12T16:13:28;18.23;;;15.05;;
22363;SDS011;11349;53.412;-1.328;2023-02-12T16:18:32;21.33;;;16.55;;
22363;SDS011;11349;53.412;-1.328;2023-02-12T16:21:04;21.48;;;18.30;;
22363;SDS011;11349;53.412;-1.328;2023-02-12T16:23:31;22.20;;;16.90;;
22363;SDS011;11349;53.412;-1.328;2023-02-12T16:25:57;20.48;;;16.95;;
22363;SDS011;11349;53.412;-1.328;2023-02-12T16:28:26;16.38;;;14.63;;
22363;SDS011;11349;53.412;-1.328;2023-02-12T16:30:56;21.27;;;15.48;;
22363;SDS011;11349;53.412;-1.328;2023-02-12T16:38:42;23.88;;;16.25;;
22363;SDS011;11349;53.412;-1.328;2023-02-12T16:43:44;23.35;;;17.55;;
22363;SDS011;11349;53.412;-1.328;2023-02-12T16:46:12;22.98;;;18.15;;
22363;SDS011;11349;53.412;-1.328;2023-02-12T16:48:41;22.33;;;16.63;;
22363;SDS011;11349;53.412;-1.328;2023-02-12T16:51:23;24.50;;;15.77;;
22363;SDS011;11349;53.412;-1.328;2023-02-12T16:53:55;25.40;;;17.85;;
22363;SDS011;11349;53.412;-1.328;2023-02-12T16:56:22;22.80;;;16.63;;
22363;SDS011;11349;53.412;-1.328;2023-02-12T16:58:51;21.35;;;15.88;;
22363;SDS011;11349;53.412;-1.328;2023-02-12T17:01:25;23.10;;;16.13;;
22363;SDS011;11349;53.412;-1.328;2023-02-12T17:03:52;23.38;;;15.70;;
22363;SDS011;11349;53.412;-1.328;2023-02-12T17:06:26;22.92;;;15.55;;
22363;SDS011;11349;53.412;-1.328;2023-02-12T17:08:54;21.30;;;15.48;;
22363;SDS011;11349;53.412;-1.328;2023-02-12T17:11:20;23.95;;;16.02;;
22363;SDS011;11349;53.412;-1.328;2023-02-12T17:13:47;22.05;;;16.10;;
22363;SDS011;11349;53.412;-1.328;2023-02-12T17:16:14;23.35;;;16.95;;
22363;SDS011;11349;53.412;-1.328;2023-02-12T17:18:40;21.33;;;16.33;;
22363;SDS011;11349;53.412;-1.328;2023-02-12T17:21:09;21.90;;;16.00;;
22363;SDS011;11349;53.412;-1.328;2023-02-12T17:23:42;24.73;;;18.23;;
22363;SDS011;11349;53.412;-1.328;2023-02-12T17:26:07;23.17;;;17.88;;
22363;SDS011;11349;53.412;-1.328;2023-02-12T17:28:33;22.15;;;17.42;;
22363;SDS011;11349;53.412;-1.328;2023-02-12T17:30:59;23.27;;;17.17;;
22363;SDS011;11349;53.412;-1.328;2023-02-12T17:33:30;24.02;;;18.20;;
22363;SDS011;11349;53.412;-1.328;2023-02-12T17:35:57;24.90;;;16.70;;
22363;SDS011;11349;53.412;-1.328;2023-02-12T17:38:23;23.70;;;16.25;;
22363;SDS011;11349;53.412;-1.328;2023-02-12T17:40:48;23.83;;;16.05;;
22363;SDS011;11349;53.412;-1.328;2023-02-12T17:43:14;25.67;;;17.00;;
22363;SDS011;11349;53.412;-1.328;2023-02-12T17:45:40;25.00;;;17.58;;
22363;SDS011;11349;53.412;-1.328;2023-02-12T17:48:07;24.98;;;17.85;;
22363;SDS011;11349;53.412;-1.328;2023-02-12T17:50:37;24.25;;;16.48;;